This is the latest recevied weather packets stored in our database for station/object K7KAR-2. If no packets are shown the sender has not sent any weather packets the latest 10 day(s).
| Time | Temp. | Humidity | Pressure | Rain* | Wind** | Luminosity | Snow |
|---|---|---|---|---|---|---|---|
| 1777654084 | 17.22° C | 10% | 1018.8 hPa | 0 mm | - | 793 W/m² | - |
| 1777653782 | 16.67° C | 10% | 1018.9 hPa | 0 mm | - | 805 W/m² | - |
| 1777653477 | 17.22° C | 10% | 1018.8 hPa | 0 mm | - | 910 W/m² | - |
| 1777653175 | 17.22° C | 10% | 1018.7 hPa | 0 mm | - | 924 W/m² | - |
| 1777652871 | 16.11° C | 11% | 1019 hPa | 0 mm | - | 924 W/m² | - |
| 1777652568 | 16.11° C | 11% | 1018.7 hPa | 0 mm | - | 943 W/m² | - |
| 1777652264 | 16.11° C | 14% | 1018.9 hPa | 0 mm | - | 942 W/m² | - |
| 1777651962 | 15.56° C | 15% | 1019 hPa | 0 mm | - | 940 W/m² | - |
| 1777651658 | 15° C | 14% | 1018.9 hPa | 0 mm | - | 922 W/m² | - |
| 1777651355 | 15° C | 16% | 1018.9 hPa | 0 mm | - | 902 W/m² | - |
| 1777651052 | 14.44° C | 16% | 1019 hPa | 0 mm | - | 873 W/m² | - |
| 1777650749 | 14.44° C | 17% | 1019 hPa | 0 mm | - | 849 W/m² | - |
| 1777650446 | 13.89° C | 19% | 1019.1 hPa | 0 mm | - | 827 W/m² | - |
| 1777650143 | 13.89° C | 21% | 1019 hPa | 0 mm | - | 812 W/m² | - |
| 1777649841 | 12.78° C | 22% | 1019.2 hPa | 0 mm | - | 807 W/m² | - |
| 1777649538 | 12.78° C | 23% | 1019.2 hPa | 0 mm | - | 798 W/m² | - |
| 1777649234 | 12.22° C | 25% | 1019.1 hPa | 0 mm | - | 789 W/m² | - |
| 1777648931 | 12.22° C | 26% | 1018.9 hPa | 0 mm | - | 752 W/m² | - |
| 1777648628 | 11.67° C | 27% | 1019 hPa | 0 mm | - | 736 W/m² | - |
| 1777648324 | 11.11° C | 28% | 1019.2 hPa | 0 mm | - | 716 W/m² | - |
| 1777648021 | 10.56° C | 30% | 1019.1 hPa | 0 mm | - | 676 W/m² | - |
| 1777647717 | 10.56° C | 31% | 1019.2 hPa | 0 mm | - | 665 W/m² | - |
| 1777647413 | 10° C | 31% | 1019.1 hPa | 0 mm | - | 644 W/m² | - |
| 1777647111 | 9.44° C | 32% | 1019.1 hPa | 0 mm | - | 603 W/m² | - |
| 1777646808 | 9.44° C | 33% | 1018.9 hPa | 0 mm | - | 565 W/m² | - |
* Rain latest hour (hover to see other rain measurements)
** Current wind speed in m/s (hover to see current wind gust speed)